Ionia, Michigan
Current Conditions -  °F | °C
As of 4:14 AM on Wednesday 28 Jan 2015 (Local Time) from KY70 Reporting Station
Clear Clear  
Wind Chill: 11°   Ceiling: Unl
Heat Index: 11°   Visibility: 10mi
Dew Point:   Wind: 0mph
Humidity: 81%   Direction: NA
Pressure: 30.27"   Gusts: NA
Location:  42.99°N, 85.05°W
Report Text: KY70 280914Z AUTO 00000KT 10SM CLR M11/M14 A3027 RMK AO2 T11141141
Loading
Personal Weather Stations






























Interactive Weather Map New forecast layout! Learn more

10-Day Weather Forecast

Advertisements
Track Severe Weather on mobile